Página principal
METAR-TAF:

METAR-TAF

Aeroportos :

Jerez de la Frontera, Espanha

latitude: 36-45N, longitude: 006-04W, altura: 27 m

Observação actual do tempo

O boletim foi feito há 22 minutos, às 05:30 UTC
Vento 1 kt de nordeste
Temperatura 14°C
Humidade 100%
Pressão 1013 hPa
Visibilidade 10 km ou mais
Poucas nuvensa uma altura de 4700 ft
Nuvens dispersasa uma altura de 5500 ft

METAR: LEJR 260530Z 04001KT 9999 FEW047 SCT055 14/14 Q1013

Hora: 07:52 (05:52 UTC)

Previsão

O boletim foi feito há 52 minutos, às 05:00 UTC
Previsão válida de 26 às 06 UTC a 27 às 06 UTC
Vento 3 kt com direcção variável
Visibilidade 10 km ou mais
Poucas nuvensa uma altura de 3000 ft
Tornando-se
de 26 às 10 UTC a 26 às 13 UTC
Vento 10 kt de oeste
Tornando-se
de 26 às 20 UTC a 26 às 22 UTC
Vento 3 kt com direcção variável

TAF: LEJR 260500Z 2606/2706 VRB03KT 9999 FEW030 TX25/2614Z TN13/2606Z BECMG 2610/2613 28010KT BECMG 2620/2622 VRB03KT

Observações e previsões do tempo de mais de 4000 aeroportos (mensagens METAR e TAF).

As estações disponíveis são os pontos amarelos e vermelhos sobre o mapa.

Mova o rato sobre o mapa para ver o nome da estação.

Depois clique no ponto para visualizar as observações e previsões meteorológicas.

Para alterar o mapa : clique nos botões verdes com uma cruz preta para aumentar o zoom; no botão verde com uma pitada de zoom; ou nas setas verdes para mapas adjacentes.


METAR-TAF: